createdAt,value
2023-01-08T00:01:15.833Z,11.90
2023-01-08T00:06:17.009Z,6.15
2023-01-08T00:08:45.551Z,10.27
2023-01-08T00:11:13.683Z,10.50
2023-01-08T00:13:41.658Z,16.67
2023-01-08T00:16:11.666Z,9.50
2023-01-08T00:18:39.412Z,14.90
2023-01-08T00:21:07.391Z,18.20
2023-01-08T00:23:35.961Z,16.42
2023-01-08T00:26:05.298Z,12.18
2023-01-08T00:28:33.555Z,19.77
2023-01-08T00:31:04.246Z,16.65
2023-01-08T00:33:32.122Z,19.75
2023-01-08T00:36:00.123Z,10.68
2023-01-08T00:38:29.283Z,12.43
2023-01-08T00:40:56.672Z,12.65
2023-01-08T00:48:28.337Z,11.90
2023-01-08T00:50:55.856Z,11.98
2023-01-08T00:55:50.632Z,12.38
2023-01-08T01:00:45.487Z,11.00
2023-01-08T01:03:12.983Z,12.02
2023-01-08T01:05:40.557Z,8.73
2023-01-08T01:08:08.008Z,8.82
2023-01-08T01:13:02.915Z,6.18
2023-01-08T01:15:30.408Z,5.28
2023-01-08T01:20:25.145Z,7.78
2023-01-08T01:25:19.823Z,6.03
2023-01-08T01:30:14.627Z,4.95
2023-01-08T01:35:09.702Z,5.20
2023-01-08T01:37:37.129Z,6.88
2023-01-08T01:42:41.035Z,6.15
2023-01-08T01:45:17.551Z,6.15
2023-01-08T01:47:49.808Z,6.80
2023-01-08T01:50:33.419Z,6.70
2023-01-08T01:53:11.010Z,5.97
2023-01-08T01:55:40.716Z,6.10
2023-01-08T01:58:11.783Z,4.90
2023-01-08T02:00:39.392Z,4.90
2023-01-08T02:03:08.330Z,5.65
2023-01-08T02:06:11.114Z,3.78
2023-01-08T02:08:50.668Z,5.93
2023-01-08T02:11:35.236Z,3.83
2023-01-08T02:14:14.018Z,6.40
2023-01-08T02:16:52.020Z,7.47
2023-01-08T02:19:41.491Z,6.82
2023-01-08T02:22:29.868Z,10.05
2023-01-08T02:25:09.633Z,6.88
2023-01-08T02:27:39.918Z,3.28
2023-01-08T02:30:08.597Z,9.18
2023-01-08T02:32:40.797Z,12.23
2023-01-08T02:35:09.727Z,8.75
2023-01-08T02:37:38.362Z,10.98
2023-01-08T02:40:56.889Z,11.20
2023-01-08T02:43:49.617Z,8.45
2023-01-08T02:46:27.150Z,10.32
2023-01-08T02:49:01.544Z,8.57
2023-01-08T02:51:34.490Z,12.05
2023-01-08T02:54:10.045Z,9.82
2023-01-08T02:56:42.678Z,7.00
2023-01-08T02:59:13.289Z,12.15
2023-01-08T03:01:42.391Z,13.65
2023-01-08T03:04:17.930Z,14.55
2023-01-08T03:06:46.589Z,12.63
2023-01-08T03:09:15.914Z,7.57
2023-01-08T03:12:06.189Z,11.70
2023-01-08T03:14:43.786Z,6.60
2023-01-08T03:17:14.281Z,7.68
2023-01-08T03:19:49.084Z,6.75
2023-01-08T03:22:18.336Z,9.38
2023-01-08T03:24:49.265Z,13.48
2023-01-08T03:27:21.678Z,7.75
2023-01-08T03:29:52.451Z,11.57
2023-01-08T03:32:22.268Z,13.05
2023-01-08T03:34:53.014Z,9.43
2023-01-08T03:37:26.726Z,15.07
2023-01-08T03:40:12.874Z,6.10
2023-01-08T03:42:40.593Z,10.90
2023-01-08T03:45:08.649Z,12.23
2023-01-08T03:47:38.457Z,9.40
2023-01-08T03:50:10.379Z,9.23
2023-01-08T03:52:37.808Z,9.40
2023-01-08T03:55:05.501Z,11.52
2023-01-08T03:57:32.958Z,8.05
2023-01-08T04:00:00.431Z,14.23
2023-01-08T04:04:55.486Z,12.60
2023-01-08T04:07:23.110Z,5.95
2023-01-08T04:09:50.519Z,6.93
2023-01-08T04:17:13.279Z,6.18
2023-01-08T04:19:41.198Z,10.60
2023-01-08T04:22:11.158Z,9.38
2023-01-08T04:24:38.804Z,9.45
2023-01-08T04:27:06.312Z,7.18
2023-01-08T04:32:01.242Z,5.03
2023-01-08T04:34:28.821Z,6.78
2023-01-08T04:36:56.630Z,6.55
2023-01-08T04:39:24.052Z,6.35
2023-01-08T04:44:18.911Z,15.68
2023-01-08T04:46:46.677Z,8.55
2023-01-08T04:49:14.379Z,7.00
2023-01-08T04:51:41.776Z,9.20
2023-01-08T04:54:09.471Z,5.43
2023-01-08T04:56:37.009Z,10.20
2023-01-08T05:01:31.965Z,13.05
2023-01-08T05:04:01.606Z,8.45
2023-01-08T05:06:30.410Z,7.65
2023-01-08T05:08:58.473Z,6.90
2023-01-08T05:11:26.219Z,10.60
2023-01-08T05:13:54.272Z,9.93
2023-01-08T05:16:21.832Z,9.95
2023-01-08T05:18:49.812Z,11.30
2023-01-08T05:21:17.378Z,7.93
2023-01-08T05:23:50.577Z,12.75
2023-01-08T05:26:19.491Z,10.82
2023-01-08T05:28:47.253Z,17.52
2023-01-08T05:31:15.921Z,12.23
2023-01-08T05:33:43.482Z,15.02
2023-01-08T05:36:12.456Z,7.88
2023-01-08T05:38:40.371Z,16.52
2023-01-08T05:41:08.670Z,14.38
2023-01-08T05:43:36.874Z,12.35
2023-01-08T05:46:05.137Z,14.10
2023-01-08T05:48:34.220Z,13.95
2023-01-08T05:51:02.821Z,11.75
2023-01-08T05:53:32.223Z,9.85
2023-01-08T05:56:02.108Z,14.25
2023-01-08T05:58:30.128Z,15.40
2023-01-08T06:01:11.800Z,16.52
2023-01-08T06:03:39.836Z,16.17
2023-01-08T06:06:08.045Z,16.50
2023-01-08T06:08:35.653Z,13.77
2023-01-08T06:11:06.359Z,10.55
2023-01-08T06:13:35.593Z,9.40
2023-01-08T06:16:03.126Z,10.43
2023-01-08T06:18:31.282Z,11.48
2023-01-08T06:20:58.830Z,17.27
2023-01-08T06:23:26.497Z,15.45
2023-01-08T06:25:57.675Z,16.73
2023-01-08T06:28:25.736Z,9.95
2023-01-08T06:30:53.463Z,14.80
2023-01-08T06:33:21.507Z,13.50
2023-01-08T06:35:49.183Z,12.07
2023-01-08T06:38:19.347Z,14.07
2023-01-08T06:40:49.825Z,17.10
2023-01-08T06:43:18.054Z,16.88
2023-01-08T06:45:45.423Z,16.73
2023-01-08T06:50:40.135Z,17.35
2023-01-08T06:55:35.055Z,13.43
2023-01-08T07:02:57.919Z,15.55
2023-01-08T07:05:25.413Z,14.68
2023-01-08T07:10:20.374Z,12.07
2023-01-08T07:12:48.469Z,17.25
2023-01-08T07:15:16.272Z,10.15
2023-01-08T07:17:43.764Z,12.50
2023-01-08T07:20:11.548Z,15.82
2023-01-08T07:22:39.061Z,14.75
2023-01-08T07:27:34.834Z,9.55
2023-01-08T07:30:02.269Z,6.15
2023-01-08T07:37:27.132Z,13.18
2023-01-08T07:42:21.910Z,17.77
2023-01-08T07:47:16.727Z,13.23
2023-01-08T07:49:44.146Z,14.98
2023-01-08T07:54:38.985Z,15.90
2023-01-08T07:59:33.728Z,13.82
2023-01-08T08:04:28.686Z,10.88
2023-01-08T08:06:56.245Z,14.90
2023-01-08T08:14:18.184Z,18.38
2023-01-08T08:16:45.699Z,19.08
2023-01-08T08:21:40.499Z,17.13
2023-01-08T08:26:35.396Z,16.10
2023-01-08T08:31:30.231Z,10.27
2023-01-08T08:36:31.260Z,16.45
2023-01-08T08:38:58.925Z,11.27
2023-01-08T08:41:26.306Z,10.63
2023-01-08T08:48:48.644Z,18.65
2023-01-08T08:51:16.239Z,12.75
2023-01-08T08:53:44.011Z,10.00
2023-01-08T08:56:11.373Z,9.93
2023-01-08T09:01:06.575Z,11.80
2023-01-08T09:06:02.103Z,11.65
2023-01-08T09:08:29.604Z,12.63
2023-01-08T09:15:54.803Z,11.63
2023-01-08T09:18:22.573Z,9.52
2023-01-08T09:20:49.971Z,14.32
2023-01-08T09:28:17.577Z,9.75
2023-01-08T09:30:45.361Z,14.45
2023-01-08T09:35:40.115Z,12.43
2023-01-08T09:41:03.044Z,9.95
2023-01-08T09:43:33.589Z,14.27
2023-01-08T09:46:04.483Z,11.07
2023-01-08T09:48:36.314Z,18.02
2023-01-08T09:51:04.616Z,13.02
2023-01-08T09:53:33.491Z,12.38
2023-01-08T09:56:11.316Z,15.85
2023-01-08T09:58:43.848Z,23.98
2023-01-08T10:01:14.466Z,13.48
2023-01-08T10:03:46.808Z,11.75
2023-01-08T10:06:16.437Z,15.25
2023-01-08T10:11:17.880Z,8.55
2023-01-08T10:13:50.607Z,14.23
2023-01-08T10:16:30.940Z,14.98
2023-01-08T10:18:59.933Z,15.85
2023-01-08T10:21:39.823Z,15.90
2023-01-08T10:24:08.115Z,17.80
2023-01-08T10:26:37.854Z,11.25
2023-01-08T10:29:14.193Z,15.27
2023-01-08T10:31:54.561Z,14.45
2023-01-08T10:34:27.028Z,10.57
2023-01-08T10:36:55.837Z,16.98
2023-01-08T10:39:27.819Z,12.02
2023-01-08T10:42:03.613Z,12.48
2023-01-08T10:44:33.007Z,10.70
2023-01-08T10:47:01.438Z,11.05
2023-01-08T10:49:43.959Z,13.95
2023-01-08T10:52:29.674Z,13.32
2023-01-08T10:54:57.610Z,13.23
2023-01-08T10:57:30.976Z,14.32
2023-01-08T10:59:58.660Z,14.63
2023-01-08T11:02:40.372Z,11.20
2023-01-08T11:05:11.535Z,10.05
2023-01-08T11:07:40.417Z,16.00
2023-01-08T11:10:22.897Z,15.30
2023-01-08T11:13:01.962Z,12.77
2023-01-08T11:15:33.054Z,10.18
2023-01-08T11:18:06.159Z,15.07
2023-01-08T11:20:34.368Z,16.40
2023-01-08T11:23:23.744Z,15.52
2023-01-08T11:26:05.415Z,12.73
2023-01-08T11:28:53.532Z,15.23
2023-01-08T11:31:34.930Z,11.82
2023-01-08T11:34:21.154Z,11.75
2023-01-08T11:37:01.574Z,11.77
2023-01-08T11:39:29.303Z,9.80
2023-01-08T11:42:29.845Z,17.60
2023-01-08T11:45:31.152Z,13.13
2023-01-08T11:48:11.779Z,11.88
2023-01-08T11:51:05.432Z,9.77
2023-01-08T11:53:43.532Z,11.85
2023-01-08T11:56:10.982Z,14.88
2023-01-08T12:01:44.591Z,13.02
2023-01-08T12:04:53.797Z,8.95
2023-01-08T12:07:50.328Z,13.85
2023-01-08T12:10:17.822Z,11.18
2023-01-08T12:16:01.626Z,11.57
2023-01-08T12:19:06.636Z,11.90
2023-01-08T12:21:42.408Z,10.95
2023-01-08T12:24:36.345Z,15.02
2023-01-08T12:27:16.492Z,10.90
2023-01-08T12:29:52.513Z,8.13
2023-01-08T12:32:26.101Z,12.77
2023-01-08T12:35:00.340Z,8.35
2023-01-08T12:37:35.943Z,9.05
2023-01-08T12:40:17.928Z,12.73
2023-01-08T12:42:50.195Z,10.75
2023-01-08T12:45:27.459Z,13.52
2023-01-08T12:48:08.384Z,16.33
2023-01-08T12:50:39.238Z,16.50
2023-01-08T12:53:26.854Z,19.58
2023-01-08T12:56:15.255Z,13.38
2023-01-08T12:58:45.734Z,12.35
2023-01-08T13:01:13.128Z,11.93
2023-01-08T13:03:41.057Z,17.50
2023-01-08T13:06:13.134Z,13.48
2023-01-08T13:08:44.801Z,11.77
2023-01-08T13:11:12.992Z,9.38
2023-01-08T13:13:45.310Z,12.80
2023-01-08T13:16:14.509Z,14.13
2023-01-08T13:19:01.317Z,15.50
2023-01-08T13:21:52.916Z,14.23
2023-01-08T13:24:41.205Z,12.52
2023-01-08T13:27:17.384Z,13.55
2023-01-08T13:29:49.290Z,14.60
2023-01-08T13:32:44.082Z,13.13
2023-01-08T13:35:15.098Z,12.95
2023-01-08T13:37:43.507Z,13.80
2023-01-08T13:40:37.135Z,10.35
2023-01-08T13:43:16.477Z,15.27
2023-01-08T13:45:58.145Z,9.45
2023-01-08T13:48:34.033Z,18.88
2023-01-08T13:51:01.732Z,13.70
2023-01-08T13:53:29.684Z,11.57
2023-01-08T13:56:04.819Z,10.40
2023-01-08T13:58:36.722Z,14.73
2023-01-08T14:01:06.202Z,12.50
2023-01-08T14:03:37.469Z,9.20
2023-01-08T14:06:27.016Z,8.73
2023-01-08T14:09:02.773Z,12.15
2023-01-08T14:11:43.918Z,11.32
2023-01-08T14:14:17.273Z,5.18
2023-01-08T14:16:46.516Z,13.88
2023-01-08T14:19:32.094Z,11.45
2023-01-08T14:22:04.086Z,11.05
2023-01-08T14:24:31.937Z,8.10
2023-01-08T14:27:00.386Z,3.40
2023-01-08T14:29:30.959Z,3.83
2023-01-08T14:32:00.806Z,5.68
2023-01-08T14:34:31.182Z,4.45
2023-01-08T14:36:58.718Z,3.72
2023-01-08T14:39:32.334Z,5.18
2023-01-08T14:42:26.628Z,6.97
2023-01-08T14:44:56.837Z,5.47
2023-01-08T14:47:30.709Z,6.43
2023-01-08T14:49:58.240Z,2.90
2023-01-08T14:54:57.734Z,6.30
2023-01-08T14:57:27.100Z,3.10
2023-01-08T14:59:58.263Z,2.47
2023-01-08T15:02:30.115Z,3.08
2023-01-08T15:05:05.271Z,7.30
2023-01-08T15:07:32.800Z,5.88
2023-01-08T15:12:33.529Z,1.10
2023-01-08T15:15:23.181Z,5.60
2023-01-08T15:17:50.985Z,5.25
2023-01-08T15:20:20.498Z,5.55
2023-01-08T15:22:48.464Z,2.78
2023-01-08T15:25:26.852Z,1.50
2023-01-08T15:28:01.732Z,3.05
2023-01-08T15:30:38.061Z,2.17
2023-01-08T15:33:16.965Z,4.55
2023-01-08T15:35:44.596Z,3.67
2023-01-08T15:38:13.166Z,6.65
2023-01-08T15:40:41.211Z,4.97
2023-01-08T15:43:14.391Z,4.57
2023-01-08T15:45:44.467Z,3.97
2023-01-08T15:48:12.084Z,5.97
2023-01-08T15:50:42.605Z,7.25
2023-01-08T15:53:19.065Z,4.03
2023-01-08T15:55:47.041Z,3.45
2023-01-08T15:58:15.643Z,1.08
2023-01-08T16:00:45.543Z,2.65
2023-01-08T16:03:14.597Z,2.03
2023-01-08T16:05:42.318Z,3.85
2023-01-08T16:08:11.268Z,3.63
2023-01-08T16:10:38.720Z,5.45
2023-01-08T16:15:33.793Z,4.97
2023-01-08T16:18:01.349Z,6.97
2023-01-08T16:20:28.879Z,7.00
2023-01-08T16:25:25.104Z,6.07
2023-01-08T16:27:52.917Z,11.10
2023-01-08T16:30:20.806Z,7.75
2023-01-08T16:32:52.701Z,6.53
2023-01-08T16:35:21.749Z,4.18
2023-01-08T16:37:49.226Z,4.57
2023-01-08T16:40:18.032Z,6.50
2023-01-08T16:42:45.550Z,5.13
2023-01-08T16:45:13.036Z,5.75
2023-01-08T16:50:10.195Z,2.33
2023-01-08T16:52:39.052Z,3.88
2023-01-08T16:55:07.206Z,4.43
2023-01-08T16:57:34.707Z,8.00
2023-01-08T17:00:02.428Z,7.18
2023-01-08T17:02:30.006Z,10.55
2023-01-08T17:04:57.447Z,5.35
2023-01-08T17:12:22.557Z,5.13
2023-01-08T17:14:50.929Z,4.07
2023-01-08T17:17:18.392Z,5.07
2023-01-08T17:22:13.233Z,8.32
2023-01-08T17:27:08.257Z,3.80
2023-01-08T17:29:35.873Z,5.50
2023-01-08T17:32:03.394Z,6.03
2023-01-08T17:34:30.883Z,5.13
2023-01-08T17:44:38.611Z,5.38
2023-01-08T17:47:06.039Z,4.90
2023-01-08T17:52:00.927Z,6.10
2023-01-08T17:54:29.102Z,4.93
2023-01-08T17:56:56.799Z,6.50
2023-01-08T17:59:24.373Z,5.10
2023-01-08T18:04:19.929Z,9.10
2023-01-08T18:06:47.363Z,4.75
2023-01-08T18:11:43.084Z,6.65
2023-01-08T18:14:13.051Z,8.30
2023-01-08T18:16:45.422Z,7.53
2023-01-08T18:19:14.121Z,6.50
2023-01-08T18:21:41.946Z,11.85
2023-01-08T18:24:10.672Z,10.52
2023-01-08T18:26:38.286Z,10.10
2023-01-08T18:29:05.941Z,10.93
2023-01-08T18:31:33.427Z,6.45
2023-01-08T18:34:01.028Z,9.77
2023-01-08T18:38:57.408Z,7.57
2023-01-08T18:41:43.211Z,7.30
2023-01-08T18:44:10.883Z,7.38
2023-01-08T18:46:38.394Z,9.45
2023-01-08T18:49:06.669Z,8.38
2023-01-08T18:51:34.284Z,5.72
2023-01-08T18:54:03.168Z,6.30
2023-01-08T18:56:35.188Z,9.32
2023-01-08T18:59:04.594Z,11.85
2023-01-08T19:01:33.247Z,8.27
2023-01-08T19:04:01.123Z,10.15
2023-01-08T19:06:28.613Z,13.95
2023-01-08T19:08:58.781Z,11.52
2023-01-08T19:11:27.127Z,7.53
2023-01-08T19:13:57.894Z,11.93
2023-01-08T19:16:26.741Z,9.60
2023-01-08T19:18:54.613Z,9.65
2023-01-08T19:21:22.088Z,7.72
2023-01-08T19:23:49.767Z,9.75
2023-01-08T19:26:17.497Z,8.85
2023-01-08T19:28:45.421Z,5.88
2023-01-08T19:31:15.822Z,11.30
2023-01-08T19:33:44.717Z,9.40
2023-01-08T19:36:12.816Z,12.07
2023-01-08T19:38:40.867Z,7.25
2023-01-08T19:41:29.240Z,14.90
2023-01-08T19:43:57.718Z,11.48
2023-01-08T19:46:25.931Z,7.90
2023-01-08T19:48:57.277Z,10.98
2023-01-08T19:51:25.482Z,5.57
2023-01-08T19:53:53.926Z,8.23
2023-01-08T19:56:21.823Z,11.07
2023-01-08T19:58:49.240Z,10.10
2023-01-08T20:03:46.794Z,9.43
2023-01-08T20:06:19.972Z,13.27
2023-01-08T20:08:48.885Z,9.18
2023-01-08T20:11:17.778Z,15.38
2023-01-08T20:13:45.578Z,13.95
2023-01-08T20:16:16.683Z,11.45
2023-01-08T20:18:44.403Z,17.55
2023-01-08T20:21:23.149Z,11.18
2023-01-08T20:24:03.378Z,11.55
2023-01-08T20:26:32.222Z,12.75
2023-01-08T20:28:59.661Z,9.65
2023-01-08T20:33:58.341Z,15.52
2023-01-08T20:36:29.631Z,14.95
2023-01-08T20:38:59.992Z,13.93
2023-01-08T20:41:28.464Z,13.55
2023-01-08T20:43:56.319Z,14.52
2023-01-08T20:46:28.922Z,14.38
2023-01-08T20:48:59.875Z,16.52
2023-01-08T20:51:27.492Z,15.30
2023-01-08T20:53:54.944Z,14.18
2023-01-08T20:58:50.276Z,15.02
2023-01-08T21:01:23.118Z,19.25
2023-01-08T21:03:54.335Z,12.50
2023-01-08T21:06:25.363Z,9.75
2023-01-08T21:08:55.456Z,12.88
2023-01-08T21:11:24.034Z,12.98
2023-01-08T21:13:52.142Z,15.32
2023-01-08T21:16:23.276Z,12.10
2023-01-08T21:18:52.193Z,15.10
2023-01-08T21:21:23.226Z,14.23
2023-01-08T21:23:51.092Z,17.10
2023-01-08T21:26:18.878Z,15.75
2023-01-08T21:28:47.064Z,22.48
2023-01-08T21:31:21.030Z,15.75
2023-01-08T21:33:49.563Z,16.73
2023-01-08T21:36:23.869Z,17.08
2023-01-08T21:38:51.909Z,21.70
2023-01-08T21:41:41.020Z,18.23
2023-01-08T21:44:33.196Z,21.10
2023-01-08T21:47:02.102Z,15.20
2023-01-08T21:49:32.032Z,14.70
2023-01-08T21:52:18.132Z,22.15
2023-01-08T21:54:45.672Z,15.48
2023-01-08T21:57:13.173Z,15.55
2023-01-08T22:02:07.959Z,22.67
2023-01-08T22:07:03.314Z,12.32
2023-01-08T22:09:30.804Z,19.90
2023-01-08T22:14:25.633Z,18.90
2023-01-08T22:16:53.273Z,15.00
2023-01-08T22:19:20.776Z,17.85
2023-01-08T22:24:15.765Z,23.40
2023-01-08T22:26:43.212Z,21.65
2023-01-08T22:29:10.757Z,26.13
2023-01-08T22:34:05.598Z,27.27
2023-01-08T22:36:33.189Z,19.50
2023-01-08T22:39:00.702Z,16.85
2023-01-08T22:41:28.370Z,16.42
2023-01-08T22:43:57.529Z,17.80
2023-01-08T22:46:25.689Z,22.98
2023-01-08T22:48:53.389Z,18.63
2023-01-08T22:51:29.756Z,28.00
2023-01-08T22:53:59.935Z,18.33
2023-01-08T22:56:27.592Z,24.80
2023-01-08T22:58:55.348Z,20.88
2023-01-08T23:01:25.448Z,24.20
2023-01-08T23:03:57.299Z,17.83
2023-01-08T23:06:27.297Z,25.10
2023-01-08T23:08:56.094Z,22.50
2023-01-08T23:11:24.419Z,20.98
2023-01-08T23:13:52.030Z,23.17
2023-01-08T23:16:24.189Z,21.27
2023-01-08T23:18:53.485Z,15.55
2023-01-08T23:21:22.659Z,19.27
2023-01-08T23:23:50.513Z,20.55
2023-01-08T23:26:22.255Z,15.55
2023-01-08T23:28:51.236Z,23.80
2023-01-08T23:31:22.677Z,26.92
2023-01-08T23:33:50.714Z,19.55
2023-01-08T23:36:21.361Z,17.63
2023-01-08T23:38:51.215Z,25.13
2023-01-08T23:41:20.669Z,23.38
2023-01-08T23:43:49.374Z,23.20
2023-01-08T23:46:17.408Z,15.30
2023-01-08T23:48:45.168Z,17.15
2023-01-08T23:51:12.660Z,15.65
2023-01-08T23:53:40.113Z,20.58
2023-01-08T23:58:35.922Z,9.07
